createdAt,value
2023-04-11T00:00:25.230Z,36.53
2023-04-11T00:01:33.098Z,38.53
2023-04-11T00:02:40.459Z,35.70
2023-04-11T00:03:46.891Z,29.80
2023-04-11T00:04:55.464Z,32.03
2023-04-11T00:06:06.217Z,34.88
2023-04-11T00:07:10.697Z,36.00
2023-04-11T00:08:17.638Z,28.50
2023-04-11T00:09:21.533Z,46.92
2023-04-11T00:10:28.007Z,57.22
2023-04-11T00:11:32.759Z,39.05
2023-04-11T00:12:39.614Z,51.80
2023-04-11T00:13:43.722Z,39.35
2023-04-11T00:14:50.257Z,36.78
2023-04-11T00:15:57.051Z,40.03
2023-04-11T00:17:10.506Z,45.97
2023-04-11T00:18:14.585Z,37.28
2023-04-11T00:19:23.754Z,34.97
2023-04-11T00:20:27.539Z,36.10
2023-04-11T00:21:40.520Z,44.58
2023-04-11T00:22:46.425Z,33.20
2023-04-11T00:23:55.534Z,33.67
2023-04-11T00:24:59.324Z,38.13
2023-04-11T00:26:07.050Z,33.33
2023-04-11T00:27:11.202Z,44.22
2023-04-11T00:28:18.104Z,45.15
2023-04-11T00:29:21.989Z,54.60
2023-04-11T00:30:28.569Z,45.78
2023-04-11T00:31:34.022Z,53.55
2023-04-11T00:32:41.184Z,37.72
2023-04-11T00:33:46.495Z,37.63
2023-04-11T00:34:53.559Z,51.65
2023-04-11T00:35:56.929Z,36.42
2023-04-11T00:37:07.183Z,38.53
2023-04-11T00:38:10.741Z,28.80
2023-04-11T00:39:19.167Z,41.83
2023-04-11T00:40:23.041Z,42.72
2023-04-11T00:41:30.144Z,58.00
2023-04-11T00:42:35.350Z,41.83
2023-04-11T00:43:41.431Z,29.23
2023-04-11T00:44:44.340Z,37.33
2023-04-11T00:45:51.966Z,34.90
2023-04-11T00:46:56.185Z,30.35
2023-04-11T00:48:03.578Z,40.45
2023-04-11T00:49:07.573Z,35.85
2023-04-11T00:50:17.588Z,28.27
2023-04-11T00:51:21.463Z,33.53
2023-04-11T00:52:31.255Z,41.22
2023-04-11T00:53:35.848Z,49.92
2023-04-11T00:54:44.830Z,37.78
2023-04-11T00:55:48.619Z,43.88
2023-04-11T00:56:56.489Z,48.35
2023-04-11T00:58:00.294Z,33.67
2023-04-11T00:59:09.754Z,35.60
2023-04-11T01:00:16.854Z,38.53
2023-04-11T01:01:32.798Z,31.55
2023-04-11T01:02:38.654Z,43.05
2023-04-11T01:03:46.132Z,30.75
2023-04-11T01:04:50.284Z,39.13
2023-04-11T01:05:58.863Z,27.45
2023-04-11T01:07:07.478Z,44.80
2023-04-11T01:08:20.220Z,36.25
2023-04-11T01:09:28.494Z,49.42
2023-04-11T01:10:36.110Z,54.08
2023-04-11T01:11:40.459Z,34.78
2023-04-11T01:12:48.125Z,41.80
2023-04-11T01:13:52.533Z,33.10
2023-04-11T01:15:02.010Z,35.10
2023-04-11T01:16:06.756Z,31.10
2023-04-11T01:17:13.454Z,31.80
2023-04-11T01:18:19.858Z,34.38
2023-04-11T01:19:27.895Z,47.60
2023-04-11T01:20:33.927Z,43.30
2023-04-11T01:21:48.022Z,41.47
2023-04-11T01:22:52.721Z,35.88
2023-04-11T01:24:05.262Z,43.13
2023-04-11T01:25:15.559Z,47.00
2023-04-11T01:26:22.257Z,37.53
2023-04-11T01:27:28.308Z,40.20
2023-04-11T01:28:37.009Z,36.28
2023-04-11T01:29:40.887Z,33.88
2023-04-11T01:30:48.202Z,41.13
2023-04-11T01:31:52.537Z,34.75
2023-04-11T01:32:58.551Z,37.33
2023-04-11T01:34:03.522Z,40.92
2023-04-11T01:35:12.529Z,35.65
2023-04-11T01:36:18.159Z,29.88
2023-04-11T01:37:24.574Z,44.97
2023-04-11T01:38:31.154Z,38.75
2023-04-11T01:39:38.408Z,48.92
2023-04-11T01:40:46.269Z,33.13
2023-04-11T01:41:51.320Z,37.67
2023-04-11T01:42:59.275Z,40.40
2023-04-11T01:44:03.118Z,54.35
2023-04-11T01:45:11.548Z,48.05
2023-04-11T01:46:16.698Z,46.72
2023-04-11T01:47:23.744Z,49.10
2023-04-11T01:48:27.926Z,48.63
2023-04-11T01:49:37.927Z,43.63
2023-04-11T01:50:41.542Z,54.97
2023-04-11T01:51:51.137Z,37.20
2023-04-11T01:52:56.789Z,40.38
2023-04-11T01:54:04.816Z,38.22
2023-04-11T01:55:11.779Z,30.20
2023-04-11T01:56:23.729Z,30.35
2023-04-11T01:57:29.746Z,40.78
2023-04-11T01:58:37.215Z,42.53
2023-04-11T01:59:42.638Z,32.97
2023-04-11T02:00:48.143Z,39.33
2023-04-11T02:01:51.269Z,34.88
2023-04-11T02:02:58.000Z,37.75
2023-04-11T02:04:01.989Z,45.47
2023-04-11T02:05:10.211Z,44.55
2023-04-11T02:06:15.457Z,43.00
2023-04-11T02:07:22.268Z,56.90
2023-04-11T02:08:27.477Z,41.75
2023-04-11T02:09:33.204Z,71.05
2023-04-11T02:10:38.981Z,40.90
2023-04-11T02:11:45.239Z,31.83
2023-04-11T02:12:48.718Z,34.13
2023-04-11T02:13:55.377Z,37.20
2023-04-11T02:14:58.571Z,30.27
2023-04-11T02:16:10.405Z,31.42
2023-04-11T02:17:14.732Z,31.42
2023-04-11T02:18:22.210Z,29.17
2023-04-11T02:19:26.472Z,45.30
2023-04-11T02:20:33.483Z,36.05
2023-04-11T02:21:37.454Z,42.67
2023-04-11T02:22:46.523Z,43.92
2023-04-11T02:23:52.193Z,35.75
2023-04-11T02:24:59.192Z,38.17
2023-04-11T02:26:08.408Z,38.83
2023-04-11T02:27:17.515Z,37.05
2023-04-11T02:28:21.182Z,42.50
2023-04-11T02:29:29.733Z,43.03
2023-04-11T02:30:32.648Z,53.38
2023-04-11T02:31:40.296Z,46.17
2023-04-11T02:32:44.213Z,33.22
2023-04-11T02:33:51.581Z,45.70
2023-04-11T02:34:54.893Z,34.78
2023-04-11T02:36:01.384Z,35.25
2023-04-11T02:37:05.233Z,44.13
2023-04-11T02:38:12.037Z,33.53
2023-04-11T02:39:15.678Z,25.30
2023-04-11T02:40:24.395Z,35.60
2023-04-11T02:41:31.504Z,41.53
2023-04-11T02:42:37.749Z,48.45
2023-04-11T02:43:40.791Z,50.67
2023-04-11T02:44:47.984Z,37.25
2023-04-11T02:45:56.384Z,35.78
2023-04-11T02:47:09.380Z,41.97
2023-04-11T02:48:12.677Z,44.88
2023-04-11T02:49:18.840Z,50.28
2023-04-11T02:50:23.054Z,42.10
2023-04-11T02:51:29.519Z,48.50
2023-04-11T02:52:34.213Z,43.67
2023-04-11T02:53:41.949Z,40.15
2023-04-11T02:54:45.198Z,32.53
2023-04-11T02:55:52.895Z,29.95
2023-04-11T02:56:58.848Z,30.85
2023-04-11T02:58:09.505Z,35.38
2023-04-11T02:59:13.442Z,27.90
2023-04-11T03:00:20.845Z,31.02
2023-04-11T03:01:25.890Z,29.10
2023-04-11T03:02:32.687Z,40.58
2023-04-11T03:03:37.436Z,73.88
2023-04-11T03:04:43.256Z,54.53
2023-04-11T03:05:46.772Z,50.05
2023-04-11T03:06:53.476Z,40.55
2023-04-11T03:08:01.753Z,42.80
2023-04-11T03:09:05.293Z,47.28
2023-04-11T03:10:13.831Z,44.55
2023-04-11T03:11:16.996Z,57.55
2023-04-11T03:12:28.638Z,53.03
2023-04-11T03:14:41.661Z,63.22
2023-04-11T03:15:46.793Z,56.50
2023-04-11T03:16:52.597Z,49.58
2023-04-11T03:17:55.814Z,43.75
2023-04-11T03:19:04.447Z,42.97
2023-04-11T03:20:12.159Z,44.72
2023-04-11T03:21:23.225Z,57.70
2023-04-11T03:22:26.782Z,39.15
2023-04-11T03:23:34.990Z,58.67
2023-04-11T03:24:40.660Z,64.78
2023-04-11T03:25:48.856Z,68.57
2023-04-11T03:26:52.725Z,46.08
2023-04-11T03:28:04.089Z,49.38
2023-04-11T03:29:07.092Z,60.13
2023-04-11T03:30:13.990Z,63.22
2023-04-11T03:31:18.634Z,80.43
2023-04-11T03:32:27.218Z,67.03
2023-04-11T03:33:31.909Z,75.38
2023-04-11T03:34:40.428Z,74.38
2023-04-11T03:35:43.968Z,65.35
2023-04-11T03:36:52.670Z,59.40
2023-04-11T03:37:56.672Z,55.90
2023-04-11T03:39:03.401Z,52.72
2023-04-11T03:40:09.561Z,49.95
2023-04-11T03:41:16.234Z,56.17
2023-04-11T03:42:25.748Z,48.25
2023-04-11T03:43:35.968Z,63.88
2023-04-11T03:44:39.320Z,59.83
2023-04-11T03:45:45.416Z,67.72
2023-04-11T03:46:48.468Z,86.90
2023-04-11T03:47:56.415Z,41.28
2023-04-11T03:49:00.884Z,49.80
2023-04-11T03:50:07.741Z,59.05
2023-04-11T03:51:11.392Z,51.20
2023-04-11T03:52:18.968Z,57.03
2023-04-11T03:53:25.088Z,67.43
2023-04-11T03:54:31.366Z,71.20
2023-04-11T03:55:34.822Z,75.85
2023-04-11T03:56:41.890Z,80.82
2023-04-11T03:57:54.638Z,70.30
2023-04-11T03:59:06.522Z,58.70
2023-04-11T04:00:12.149Z,46.33
2023-04-11T04:01:18.511Z,46.38
2023-04-11T04:02:22.395Z,44.72
2023-04-11T04:03:28.848Z,47.40
2023-04-11T04:04:35.128Z,58.53
2023-04-11T04:05:43.485Z,62.75
2023-04-11T04:06:48.114Z,70.95
2023-04-11T04:07:55.916Z,51.47
2023-04-11T04:09:00.669Z,46.13
2023-04-11T04:10:07.061Z,55.22
2023-04-11T04:11:13.700Z,56.35
2023-04-11T04:12:22.657Z,55.67
2023-04-11T04:13:28.116Z,80.00
2023-04-11T04:14:38.057Z,66.10
2023-04-11T04:15:41.366Z,50.83
2023-04-11T04:16:47.806Z,69.63
2023-04-11T04:17:52.229Z,42.05
2023-04-11T04:18:58.587Z,41.38
2023-04-11T04:20:05.289Z,47.35
2023-04-11T04:21:14.990Z,35.15
2023-04-11T04:22:18.584Z,33.78
2023-04-11T04:23:24.674Z,47.45
2023-04-11T04:24:30.281Z,36.50
2023-04-11T04:25:36.097Z,48.42
2023-04-11T04:26:40.051Z,74.75
2023-04-11T04:27:48.314Z,49.38
2023-04-11T04:28:51.998Z,44.58
2023-04-11T04:30:03.679Z,43.53
2023-04-11T04:31:12.131Z,52.83
2023-04-11T04:32:21.280Z,60.97
2023-04-11T04:33:26.423Z,54.67
2023-04-11T04:34:38.759Z,43.28
2023-04-11T04:35:42.162Z,51.35
2023-04-11T04:36:51.293Z,45.30
2023-04-11T04:37:55.042Z,34.33
2023-04-11T04:39:05.556Z,35.92
2023-04-11T04:40:09.729Z,61.35
2023-04-11T04:41:18.237Z,29.52
2023-04-11T04:42:23.825Z,37.58
2023-04-11T04:43:32.805Z,50.03
2023-04-11T04:44:36.533Z,52.13
2023-04-11T04:45:46.858Z,60.30
2023-04-11T04:46:55.515Z,46.97
2023-04-11T04:48:04.969Z,54.13
2023-04-11T04:49:11.432Z,56.58
2023-04-11T04:50:18.154Z,50.00
2023-04-11T04:51:24.635Z,44.17
2023-04-11T04:52:29.714Z,37.58
2023-04-11T04:53:39.398Z,37.15
2023-04-11T04:54:44.601Z,55.50
2023-04-11T04:55:53.045Z,56.25
2023-04-11T04:56:56.413Z,36.33
2023-04-11T04:58:02.716Z,46.65
2023-04-11T04:59:06.566Z,41.15
2023-04-11T05:00:14.318Z,35.10
2023-04-11T05:01:21.461Z,38.25
2023-04-11T05:02:28.793Z,28.58
2023-04-11T05:03:36.380Z,34.67
2023-04-11T05:04:43.384Z,49.40
2023-04-11T05:05:46.445Z,53.63
2023-04-11T05:06:53.477Z,65.93
2023-04-11T05:07:56.597Z,44.38
2023-04-11T05:09:06.686Z,40.78
2023-04-11T05:10:13.900Z,51.70
2023-04-11T05:11:17.107Z,40.72
2023-04-11T05:12:27.706Z,41.42
2023-04-11T05:13:35.415Z,36.78
2023-04-11T05:14:41.842Z,36.53
2023-04-11T05:15:49.148Z,59.28
2023-04-11T05:16:58.590Z,36.15
2023-04-11T05:18:04.805Z,34.00
2023-04-11T05:19:10.754Z,34.47
2023-04-11T05:20:14.434Z,32.30
2023-04-11T05:21:20.643Z,44.03
2023-04-11T05:22:29.624Z,33.83
2023-04-11T05:23:33.027Z,43.58
2023-04-11T05:24:39.683Z,43.72
2023-04-11T05:25:46.160Z,59.72
2023-04-11T05:26:52.895Z,53.50
2023-04-11T05:27:58.688Z,43.17
2023-04-11T05:29:05.645Z,57.72
2023-04-11T05:30:10.114Z,55.95
2023-04-11T05:31:17.783Z,46.38
2023-04-11T05:32:25.347Z,52.50
2023-04-11T05:33:32.018Z,42.28
2023-04-11T05:34:38.503Z,44.35
2023-04-11T05:35:45.954Z,71.70
2023-04-11T05:36:49.813Z,50.65
2023-04-11T05:38:01.449Z,42.08
2023-04-11T05:40:12.447Z,59.58
2023-04-11T05:41:18.934Z,51.17
2023-04-11T05:42:22.453Z,49.40
2023-04-11T05:43:29.447Z,49.75
2023-04-11T05:44:36.700Z,43.05
2023-04-11T05:45:40.720Z,68.90
2023-04-11T05:46:49.820Z,85.03
2023-04-11T05:47:57.620Z,61.75
2023-04-11T05:49:04.431Z,56.95
2023-04-11T05:50:09.860Z,57.08
2023-04-11T05:51:18.163Z,56.92
2023-04-11T05:52:22.296Z,48.65
2023-04-11T05:53:29.840Z,58.97
2023-04-11T05:54:35.992Z,51.90
2023-04-11T05:55:43.257Z,64.53
2023-04-11T05:56:50.262Z,67.68
2023-04-11T05:57:57.134Z,61.42
2023-04-11T05:59:00.595Z,54.35
2023-04-11T06:00:17.079Z,42.60
2023-04-11T06:01:24.977Z,47.92
2023-04-11T06:02:28.982Z,46.83
2023-04-11T06:03:38.472Z,47.10
2023-04-11T06:04:45.405Z,76.57
2023-04-11T06:05:54.990Z,69.68
2023-04-11T06:06:58.356Z,72.68
2023-04-11T06:08:05.176Z,61.50
2023-04-11T06:09:10.833Z,54.10
2023-04-11T06:10:18.634Z,67.47
2023-04-11T06:11:27.087Z,44.90
2023-04-11T06:12:32.050Z,48.40
2023-04-11T06:13:39.448Z,42.63
2023-04-11T06:14:43.199Z,57.63
2023-04-11T06:15:50.716Z,55.20
2023-04-11T06:16:55.504Z,56.47
2023-04-11T06:18:02.501Z,41.92
2023-04-11T06:19:12.682Z,39.75
2023-04-11T06:20:16.554Z,45.75
2023-04-11T06:21:23.475Z,57.92
2023-04-11T06:22:27.740Z,46.13
2023-04-11T06:23:35.318Z,53.83
2023-04-11T06:24:40.073Z,59.65
2023-04-11T06:25:46.540Z,81.05
2023-04-11T06:26:52.302Z,77.72
2023-04-11T06:27:58.550Z,66.65
2023-04-11T06:29:04.628Z,54.20
2023-04-11T06:30:13.201Z,58.47
2023-04-11T06:31:19.362Z,59.03
2023-04-11T06:32:30.892Z,46.28
2023-04-11T06:33:39.248Z,42.38
2023-04-11T06:34:45.626Z,52.10
2023-04-11T06:35:52.968Z,58.38
2023-04-11T06:36:56.759Z,49.22
2023-04-11T06:38:04.348Z,44.67
2023-04-11T06:39:07.897Z,36.20
2023-04-11T06:40:18.288Z,54.67
2023-04-11T06:41:22.057Z,51.38
2023-04-11T06:42:31.163Z,43.25
2023-04-11T06:43:37.339Z,71.97
2023-04-11T06:44:44.416Z,50.28
2023-04-11T06:45:52.308Z,65.72
2023-04-11T06:46:56.386Z,73.88
2023-04-11T06:48:03.040Z,52.13
2023-04-11T06:49:07.957Z,52.05
2023-04-11T06:50:17.928Z,43.90
2023-04-11T06:51:21.807Z,45.10
2023-04-11T06:52:28.985Z,43.67
2023-04-11T06:53:32.548Z,41.38
2023-04-11T06:54:40.467Z,43.38
2023-04-11T06:55:44.639Z,55.70
2023-04-11T06:56:52.913Z,59.72
2023-04-11T06:58:02.991Z,58.92
2023-04-11T06:59:06.137Z,47.20
2023-04-11T07:00:13.740Z,35.55
2023-04-11T07:01:17.357Z,34.05
2023-04-11T07:02:25.751Z,48.08
2023-04-11T07:03:29.183Z,44.17
2023-04-11T07:04:35.909Z,48.35
2023-04-11T07:05:42.093Z,45.83
2023-04-11T07:06:48.689Z,69.60
2023-04-11T07:07:56.284Z,57.25
2023-04-11T07:09:01.996Z,43.75
2023-04-11T07:10:10.994Z,39.30
2023-04-11T07:11:18.036Z,34.33
2023-04-11T07:12:26.565Z,39.42
2023-04-11T07:13:32.841Z,48.55
2023-04-11T07:14:36.556Z,41.58
2023-04-11T07:15:42.715Z,46.08
2023-04-11T07:16:47.063Z,49.42
2023-04-11T07:17:53.157Z,51.45
2023-04-11T07:18:57.440Z,48.72
2023-04-11T07:20:06.771Z,32.83
2023-04-11T07:21:19.441Z,33.63
2023-04-11T07:22:29.832Z,40.38
2023-04-11T07:23:36.726Z,44.85
2023-04-11T07:24:45.250Z,50.25
2023-04-11T07:25:50.393Z,75.13
2023-04-11T07:26:59.045Z,76.20
2023-04-11T07:28:08.049Z,53.45
2023-04-11T07:29:13.943Z,40.95
2023-04-11T07:30:23.728Z,31.05
2023-04-11T07:31:29.382Z,34.88
2023-04-11T07:32:36.053Z,30.65
2023-04-11T07:33:47.747Z,31.08
2023-04-11T07:34:56.802Z,76.15
2023-04-11T07:36:02.404Z,30.58
2023-04-11T07:37:11.878Z,42.65
2023-04-11T07:38:14.358Z,68.18
2023-04-11T07:39:19.933Z,46.63
2023-04-11T07:40:23.081Z,47.45
2023-04-11T07:41:30.541Z,53.05
2023-04-11T07:42:38.248Z,39.95
2023-04-11T07:43:42.429Z,38.03
2023-04-11T07:44:48.838Z,63.50
2023-04-11T07:45:53.972Z,58.80
2023-04-11T07:47:00.632Z,55.75
2023-04-11T07:48:08.081Z,38.60
2023-04-11T07:49:14.250Z,40.17
2023-04-11T07:50:17.273Z,36.38
2023-04-11T07:51:24.442Z,29.25
2023-04-11T07:52:34.252Z,34.42
2023-04-11T07:53:37.931Z,30.63
2023-04-11T07:54:44.828Z,39.25
2023-04-11T07:55:53.719Z,61.72
2023-04-11T07:57:02.659Z,41.00
2023-04-11T07:58:06.911Z,42.42
2023-04-11T07:59:17.618Z,38.33
2023-04-11T08:00:23.105Z,48.10
2023-04-11T08:01:32.454Z,60.40
2023-04-11T08:02:36.274Z,48.83
2023-04-11T08:03:43.975Z,68.80
2023-04-11T08:04:52.241Z,62.72
2023-04-11T08:05:57.220Z,68.35
2023-04-11T08:07:06.166Z,58.88
2023-04-11T08:08:15.680Z,44.03
2023-04-11T08:09:22.131Z,59.10
2023-04-11T08:10:26.230Z,42.83
2023-04-11T08:11:36.689Z,34.00
2023-04-11T08:12:41.288Z,39.22
2023-04-11T08:13:48.766Z,44.70
2023-04-11T08:14:52.587Z,74.38
2023-04-11T08:16:00.137Z,62.42
2023-04-11T08:17:17.833Z,42.88
2023-04-11T08:18:28.668Z,44.67
2023-04-11T08:19:35.633Z,36.67
2023-04-11T08:20:41.542Z,39.20
2023-04-11T08:21:48.118Z,50.72
2023-04-11T08:22:55.383Z,54.47
2023-04-11T08:24:06.692Z,51.58
2023-04-11T08:25:14.114Z,36.50
2023-04-11T08:26:18.657Z,36.95
2023-04-11T08:27:25.616Z,61.28
2023-04-11T08:28:29.011Z,48.03
2023-04-11T08:29:36.327Z,45.58
2023-04-11T08:30:40.261Z,70.78
2023-04-11T08:31:47.878Z,54.22
2023-04-11T08:32:53.648Z,78.78
2023-04-11T08:34:01.440Z,102.47
2023-04-11T08:35:09.984Z,71.45
2023-04-11T08:36:16.967Z,59.83
2023-04-11T08:37:20.772Z,67.03
2023-04-11T08:38:28.544Z,47.22
2023-04-11T08:39:39.164Z,61.15
2023-04-11T08:40:42.715Z,51.88
2023-04-11T08:41:49.295Z,50.53
2023-04-11T08:43:00.029Z,61.47
2023-04-11T08:44:08.203Z,52.15
2023-04-11T08:45:35.953Z,59.75
2023-04-11T08:46:46.546Z,76.45
2023-04-11T08:47:50.844Z,84.72
2023-04-11T08:48:58.345Z,80.90
2023-04-11T08:50:05.066Z,79.32
2023-04-11T08:51:13.459Z,62.20
2023-04-11T08:52:18.225Z,60.35
2023-04-11T08:53:29.270Z,56.88
2023-04-11T08:54:40.049Z,59.10
2023-04-11T08:55:50.988Z,52.97
2023-04-11T08:56:55.046Z,85.03
2023-04-11T08:58:03.744Z,91.75
2023-04-11T08:59:07.186Z,75.18
2023-04-11T09:00:19.574Z,53.25
2023-04-11T09:01:27.209Z,77.15
2023-04-11T09:02:35.830Z,62.05
2023-04-11T09:03:55.820Z,59.53
2023-04-11T09:04:59.826Z,71.85
2023-04-11T09:06:15.446Z,93.82
2023-04-11T09:07:23.405Z,75.93
2023-04-11T09:08:42.754Z,71.22
2023-04-11T09:09:51.337Z,92.05
2023-04-11T09:11:06.351Z,106.80
2023-04-11T09:12:09.620Z,63.35
2023-04-11T09:13:25.777Z,81.88
2023-04-11T09:14:28.884Z,91.85
2023-04-11T09:15:35.663Z,96.43
2023-04-11T09:16:57.997Z,122.63
2023-04-11T09:18:07.797Z,136.68
2023-04-11T09:19:27.817Z,112.57
2023-04-11T09:20:34.448Z,106.53
2023-04-11T09:21:49.253Z,132.35
2023-04-11T09:22:55.587Z,142.90
2023-04-11T09:24:17.776Z,110.45
2023-04-11T09:25:27.301Z,111.18
2023-04-11T09:26:30.896Z,164.88
2023-04-11T09:27:36.196Z,133.95
2023-04-11T09:28:43.851Z,123.82
2023-04-11T09:29:51.240Z,164.07
2023-04-11T09:30:57.756Z,163.63
2023-04-11T09:32:01.279Z,157.27
2023-04-11T09:33:25.628Z,163.52
2023-04-11T09:34:29.742Z,119.55
2023-04-11T09:35:36.302Z,130.75
2023-04-11T09:36:42.769Z,140.32
2023-04-11T09:37:50.670Z,133.18
2023-04-11T09:38:56.447Z,131.80
2023-04-11T09:41:13.180Z,134.93
2023-04-11T09:42:33.593Z,173.40
2023-04-11T09:43:55.958Z,120.78
2023-04-11T09:44:59.587Z,188.90
2023-04-11T09:46:19.436Z,134.23
2023-04-11T09:47:47.154Z,108.32
2023-04-11T09:48:58.079Z,115.60
2023-04-11T09:50:05.254Z,125.57
2023-04-11T09:51:18.043Z,104.60
2023-04-11T09:52:36.063Z,107.38
2023-04-11T09:53:53.515Z,101.25
2023-04-11T09:55:10.937Z,99.38
2023-04-11T09:56:31.463Z,103.50
2023-04-11T09:57:40.694Z,95.90
2023-04-11T09:58:50.182Z,130.90
2023-04-11T09:59:55.184Z,151.63
2023-04-11T10:01:05.050Z,173.15
2023-04-11T10:02:08.987Z,109.65
2023-04-11T10:03:19.785Z,120.15
2023-04-11T10:04:26.361Z,178.43
2023-04-11T10:05:31.694Z,133.77
2023-04-11T10:06:47.064Z,132.55
2023-04-11T10:07:58.974Z,105.07
2023-04-11T10:09:11.856Z,216.18
2023-04-11T10:10:22.510Z,90.47
2023-04-11T10:11:29.211Z,97.43
2023-04-11T10:12:35.869Z,136.95
2023-04-11T10:13:43.147Z,123.82
2023-04-11T10:14:51.024Z,137.88
2023-04-11T10:16:17.058Z,158.30
2023-04-11T10:17:25.967Z,115.85
2023-04-11T10:18:30.004Z,134.65
2023-04-11T10:19:38.238Z,113.57
2023-04-11T10:20:54.223Z,190.23
2023-04-11T10:21:57.578Z,172.35
2023-04-11T10:23:06.557Z,142.20
2023-04-11T10:24:16.669Z,177.45
2023-04-11T10:25:26.309Z,186.60
2023-04-11T10:26:48.244Z,176.35
2023-04-11T10:28:01.938Z,127.90
2023-04-11T10:29:43.561Z,175.60
2023-04-11T10:31:10.582Z,206.38
2023-04-11T10:32:19.916Z,142.60
2023-04-11T10:33:28.061Z,113.75
2023-04-11T10:34:32.578Z,96.95
2023-04-11T10:35:38.564Z,106.18
2023-04-11T10:37:06.740Z,114.22
2023-04-11T10:38:53.346Z,166.02
2023-04-11T10:40:10.678Z,127.07
2023-04-11T10:41:35.452Z,137.23
2023-04-11T10:42:43.262Z,83.15
2023-04-11T10:43:50.195Z,102.60
2023-04-11T10:45:42.130Z,112.50
2023-04-11T10:46:50.623Z,152.73
2023-04-11T10:48:15.067Z,146.85
2023-04-11T10:49:41.283Z,133.15
2023-04-11T10:50:45.790Z,170.98
2023-04-11T10:51:51.627Z,142.27
2023-04-11T10:52:55.862Z,155.52
2023-04-11T10:54:05.863Z,154.93
2023-04-11T10:55:17.514Z,163.02
2023-04-11T10:56:53.303Z,146.18
2023-04-11T10:58:20.685Z,233.52
2023-04-11T10:59:56.661Z,151.25
2023-04-11T11:02:47.741Z,146.40
2023-04-11T11:04:02.411Z,137.40
2023-04-11T11:05:20.432Z,163.07
2023-04-11T11:06:27.400Z,164.68
2023-04-11T11:07:31.195Z,174.48
2023-04-11T11:08:39.024Z,186.80
2023-04-11T11:09:42.186Z,180.95
2023-04-11T11:10:51.132Z,164.15
2023-04-11T11:12:19.015Z,233.45
2023-04-11T11:13:26.184Z,232.40
2023-04-11T11:14:33.588Z,138.98
2023-04-11T11:15:38.134Z,178.10
2023-04-11T11:16:50.298Z,194.15
2023-04-11T11:17:54.293Z,173.57
2023-04-11T11:19:06.287Z,177.98
2023-04-11T11:20:20.813Z,193.82
2023-04-11T11:21:29.700Z,186.70
2023-04-11T11:22:39.033Z,180.82
2023-04-11T11:23:58.850Z,119.47
2023-04-11T11:25:10.299Z,184.18
2023-04-11T11:26:17.484Z,134.48
2023-04-11T11:27:23.262Z,131.48
2023-04-11T11:28:33.479Z,138.73
2023-04-11T11:29:39.217Z,147.52
2023-04-11T11:30:55.590Z,178.07
2023-04-11T11:32:06.411Z,145.65
2023-04-11T11:33:18.521Z,147.48
2023-04-11T11:34:32.289Z,132.18
2023-04-11T11:35:38.746Z,147.43
2023-04-11T11:36:48.805Z,164.38
2023-04-11T11:37:57.300Z,203.35
2023-04-11T11:39:06.064Z,192.10
2023-04-11T11:40:15.857Z,193.48
2023-04-11T11:41:21.835Z,143.68
2023-04-11T11:42:26.651Z,138.18
2023-04-11T11:43:41.502Z,114.63
2023-04-11T11:44:47.995Z,104.95
2023-04-11T11:46:22.814Z,113.80
2023-04-11T11:47:28.091Z,161.68
2023-04-11T11:48:37.046Z,152.23
2023-04-11T11:49:53.080Z,151.45
2023-04-11T11:50:58.618Z,131.18
2023-04-11T11:52:07.921Z,144.68
2023-04-11T11:53:18.184Z,167.82
2023-04-11T11:54:22.363Z,112.07
2023-04-11T11:55:39.920Z,125.25
2023-04-11T11:56:55.280Z,172.75
2023-04-11T11:58:02.583Z,218.98
2023-04-11T11:59:12.294Z,271.13
2023-04-11T12:00:17.441Z,175.20
2023-04-11T12:01:24.189Z,181.57
2023-04-11T12:02:31.138Z,170.20
2023-04-11T12:03:39.306Z,147.75
2023-04-11T12:04:43.087Z,186.75
2023-04-11T12:05:52.268Z,141.48
2023-04-11T12:06:57.099Z,181.98
2023-04-11T12:08:06.199Z,206.90
2023-04-11T12:09:26.277Z,194.23
2023-04-11T12:10:42.259Z,133.05
2023-04-11T12:11:49.137Z,193.27
2023-04-11T12:12:54.309Z,118.45
2023-04-11T12:14:01.591Z,148.75
2023-04-11T12:15:12.360Z,144.60
2023-04-11T12:16:18.554Z,112.65
2023-04-11T12:17:22.359Z,119.65
2023-04-11T12:18:32.090Z,256.75
2023-04-11T12:19:46.659Z,103.15
2023-04-11T12:20:55.648Z,127.65
2023-04-11T12:21:59.887Z,155.38
2023-04-11T12:23:07.479Z,165.93
2023-04-11T12:24:14.072Z,209.57
2023-04-11T12:25:19.681Z,152.40
2023-04-11T12:26:26.383Z,143.20
2023-04-11T12:27:30.603Z,114.38
2023-04-11T12:28:38.064Z,114.53
2023-04-11T12:29:42.194Z,108.03
2023-04-11T12:30:52.143Z,116.40
2023-04-11T12:31:56.511Z,121.32
2023-04-11T12:33:03.549Z,171.85
2023-04-11T12:34:11.996Z,147.02
2023-04-11T12:35:18.896Z,157.88
2023-04-11T12:36:25.574Z,138.60
2023-04-11T12:37:29.735Z,120.88
2023-04-11T12:38:38.363Z,86.68
2023-04-11T12:39:42.957Z,88.20
2023-04-11T12:41:30.272Z,59.45
2023-04-11T12:42:53.201Z,105.88
2023-04-11T12:44:03.059Z,76.75
2023-04-11T12:45:08.703Z,112.00
2023-04-11T12:46:19.925Z,177.02
2023-04-11T12:47:23.523Z,114.88
2023-04-11T12:48:42.180Z,98.22
2023-04-11T12:49:49.976Z,115.00
2023-04-11T12:51:08.856Z,73.47
2023-04-11T12:52:15.520Z,104.28
2023-04-11T12:53:23.492Z,81.40
2023-04-11T12:54:28.580Z,148.75
2023-04-11T12:55:43.947Z,105.82
2023-04-11T12:56:56.697Z,125.22
2023-04-11T12:58:04.079Z,126.18
2023-04-11T12:59:14.746Z,199.43
2023-04-11T13:00:27.913Z,133.68
2023-04-11T13:01:37.647Z,99.63
2023-04-11T13:02:45.585Z,79.53
2023-04-11T13:03:59.338Z,80.30
2023-04-11T13:05:10.801Z,103.60
2023-04-11T13:06:15.304Z,95.78
2023-04-11T13:07:25.462Z,75.43
2023-04-11T13:08:35.427Z,77.35
2023-04-11T13:09:39.267Z,86.45
2023-04-11T13:10:48.612Z,74.28
2023-04-11T13:11:53.965Z,69.07
2023-04-11T13:13:11.901Z,61.35
2023-04-11T13:14:25.378Z,46.65
2023-04-11T13:15:32.306Z,53.03
2023-04-11T13:16:44.004Z,86.03
2023-04-11T13:19:06.064Z,103.32
2023-04-11T13:20:15.129Z,102.43
2023-04-11T13:21:22.251Z,88.75
2023-04-11T13:22:29.177Z,66.45
2023-04-11T13:23:36.425Z,71.25
2023-04-11T13:24:44.030Z,145.38
2023-04-11T13:25:50.643Z,152.57
2023-04-11T13:26:57.564Z,163.98
2023-04-11T13:28:01.652Z,208.50
2023-04-11T13:29:11.343Z,202.50
2023-04-11T13:30:19.283Z,191.80
2023-04-11T13:31:27.719Z,144.73
2023-04-11T13:32:39.353Z,155.05
2023-04-11T13:34:53.368Z,153.48
2023-04-11T13:35:59.091Z,170.45
2023-04-11T13:37:05.873Z,139.05
2023-04-11T13:38:18.522Z,156.70
2023-04-11T13:39:26.107Z,136.40
2023-04-11T13:40:34.059Z,130.60
2023-04-11T13:41:40.130Z,154.30
2023-04-11T13:42:43.032Z,175.70
2023-04-11T13:43:50.181Z,165.55
2023-04-11T13:44:55.761Z,188.05
2023-04-11T13:45:59.601Z,184.13
2023-04-11T13:47:07.633Z,183.52
2023-04-11T13:48:13.875Z,207.07
2023-04-11T13:49:21.461Z,222.13
2023-04-11T13:50:24.552Z,187.13
2023-04-11T13:51:30.614Z,222.65
2023-04-11T13:52:36.665Z,191.38
2023-04-11T13:53:45.166Z,195.00
2023-04-11T13:54:52.847Z,222.65
2023-04-11T13:55:59.206Z,157.57
2023-04-11T13:57:07.576Z,178.75
2023-04-11T13:58:14.465Z,183.07
2023-04-11T13:59:18.085Z,177.43
2023-04-11T14:00:25.695Z,144.50
2023-04-11T14:01:32.874Z,158.13
2023-04-11T14:02:36.645Z,176.20
2023-04-11T14:03:45.120Z,170.48
2023-04-11T14:04:50.746Z,182.32
2023-04-11T14:05:56.510Z,176.35
2023-04-11T14:07:14.384Z,221.35
2023-04-11T14:08:19.952Z,212.85
2023-04-11T14:09:29.072Z,169.40
2023-04-11T14:10:34.424Z,171.98
2023-04-11T14:11:40.635Z,176.43
2023-04-11T14:12:49.690Z,149.00
2023-04-11T14:13:53.468Z,146.25
2023-04-11T14:14:58.994Z,60.60
2023-04-11T14:16:08.692Z,75.45
2023-04-11T14:17:14.000Z,103.55
2023-04-11T14:18:23.537Z,99.72
2023-04-11T14:19:33.624Z,110.57
2023-04-11T14:20:36.930Z,71.40
2023-04-11T14:21:42.200Z,101.65
2023-04-11T14:22:44.986Z,91.47
2023-04-11T14:23:54.776Z,65.55
2023-04-11T14:25:02.272Z,104.57
2023-04-11T14:26:09.365Z,88.70
2023-04-11T14:27:12.932Z,129.90
2023-04-11T14:28:22.510Z,184.68
2023-04-11T14:29:35.199Z,84.47
2023-04-11T14:30:39.307Z,57.08
2023-04-11T14:31:47.280Z,102.03
2023-04-11T14:32:51.254Z,86.68
2023-04-11T14:33:59.099Z,69.30
2023-04-11T14:35:08.987Z,90.57
2023-04-11T14:36:12.273Z,97.07